Time;durP1;ratioP1;P1;durP2;ratioP2;P2;SDS_P1;SDS_P2;PMS_P1;PMS_P2;Temp;Humidity;BMP_temperature;BMP_pressure;BME280_temperature;BME280_humidity;BME280_pressure;Samples;Min_cycle;Max_cycle;Signal;HPM_P1;HPM_P2
2022/03/17 00:01:15;;;;;;;28.38;20.08;;;10.20;99.90;;;;;;5121020;27;20371;-73
2022/03/17 00:03:41;;;;;;;27.05;18.80;;;9.90;99.90;;;;;;5137782;27;20035;-73
2022/03/17 00:06:06;;;;;;;31.48;19.20;;;10.00;99.90;;;;;;5138008;27;20478;-72
2022/03/17 00:08:32;;;;;;;29.13;18.50;;;9.90;99.90;;;;;;5103313;27;20034;-73
2022/03/17 00:10:59;;;;;;;27.77;18.67;;;9.90;99.90;;;;;;5137582;27;20053;-73
2022/03/17 00:13:26;;;;;;;27.30;19.27;;;9.80;99.90;;;;;;5137902;27;20084;-73
2022/03/17 00:15:51;;;;;;;29.33;19.77;;;9.80;99.90;;;;;;5103977;27;20090;-73
2022/03/17 00:18:17;;;;;;;30.70;19.83;;;9.80;99.90;;;;;;5137096;27;20468;-73
2022/03/17 00:20:43;;;;;;;29.58;19.02;;;9.80;99.90;;;;;;5119521;27;20057;-73
2022/03/17 00:23:08;;;;;;;28.77;19.17;;;9.80;99.90;;;;;;5119949;27;20039;-73
2022/03/17 00:25:34;;;;;;;29.80;20.77;;;9.80;99.90;;;;;;5137706;27;20079;-74
2022/03/17 00:28:00;;;;;;;31.45;19.80;;;9.70;99.90;;;;;;5120167;27;20122;-73
2022/03/17 00:30:26;;;;;;;30.40;20.05;;;9.80;99.90;;;;;;5103145;27;20550;-73
2022/03/17 00:32:52;;;;;;;29.70;20.00;;;9.80;99.90;;;;;;5137202;27;20043;-72
2022/03/17 00:35:36;;;;;;;28.90;20.33;;;9.70;99.90;;;;;;5119881;27;20428;-72
2022/03/17 00:38:03;;;;;;;31.55;21.27;;;9.70;99.90;;;;;;5136967;27;20042;-72
2022/03/17 00:40:30;;;;;;;28.95;20.00;;;9.70;99.90;;;;;;5137302;27;20118;-73
2022/03/17 00:42:56;;;;;;;28.05;18.40;;;9.70;99.90;;;;;;5103049;27;20423;-73
2022/03/17 00:45:23;;;;;;;27.20;18.70;;;9.70;99.90;;;;;;5137118;27;20533;-73
2022/03/17 00:47:49;;;;;;;29.20;19.30;;;9.70;99.90;;;;;;5136982;27;20078;-73
2022/03/17 00:50:15;;;;;;;30.95;19.38;;;9.70;99.90;;;;;;5136681;27;20034;-72
2022/03/17 00:52:41;;;;;;;29.38;21.05;;;9.70;99.90;;;;;;5119193;27;20037;-72
2022/03/17 00:55:07;;;;;;;32.28;19.80;;;9.70;99.90;;;;;;5102958;27;20525;-74
2022/03/17 00:57:34;;;;;;;28.10;18.92;;;9.70;99.90;;;;;;5119332;27;20099;-72
2022/03/17 01:00:00;;;;;;;29.85;19.80;;;9.70;99.90;;;;;;5102642;27;20117;-71
2022/03/17 01:02:25;;;;;;;29.92;20.00;;;9.70;99.90;;;;;;5119203;27;20034;-72
2022/03/17 01:04:51;;;;;;;30.73;20.23;;;9.70;99.90;;;;;;5136591;27;20175;-72
2022/03/17 01:07:17;;;;;;;31.80;20.98;;;9.70;99.90;;;;;;5119537;27;20091;-73
2022/03/17 01:09:42;;;;;;;28.67;19.58;;;9.70;99.90;;;;;;5102461;27;20065;-72
2022/03/17 01:23:11;;;;;;;30.83;19.67;;;9.70;99.90;;;;;;4969682;27;20046;-73
2022/03/17 01:25:37;;;;;;;31.15;22.08;;;9.70;99.90;;;;;;5136163;27;20039;-73
2022/03/17 01:28:04;;;;;;;34.85;19.35;;;10.30;99.90;;;;;;5119118;27;20455;-73
2022/03/17 01:30:29;;;;;;;29.92;20.30;;;9.70;99.90;;;;;;5135382;27;20045;-73
2022/03/17 01:32:55;;;;;;;32.55;20.00;;;9.70;99.90;;;;;;5136311;27;20054;-73
2022/03/17 01:35:21;;;;;;;29.60;19.80;;;9.90;99.90;;;;;;5136033;27;20046;-73
2022/03/17 01:37:46;;;;;;;30.55;20.05;;;9.70;99.90;;;;;;5118735;27;20401;-73
2022/03/17 01:40:12;;;;;;;30.48;19.60;;;9.70;99.90;;;;;;5118867;27;20119;-74
2022/03/17 01:42:39;;;;;;;29.13;19.65;;;8.50;99.90;;;;;;5118554;27;20130;-74
2022/03/17 01:45:06;;;;;;;32.83;21.58;;;9.80;99.90;;;;;;5136009;27;20039;-74
2022/03/17 01:47:33;;;;;;;31.02;20.15;;;9.60;99.90;;;;;;5136226;27;20054;-74
2022/03/17 01:50:03;;;;;;;31.25;20.98;;;9.60;99.90;;;;;;5119029;27;20046;-72
2022/03/17 01:52:28;;;;;;;30.67;19.58;;;9.60;99.90;;;;;;5136140;27;20490;-73
2022/03/17 01:54:55;;;;;;;28.13;20.23;;;9.60;99.90;;;;;;5135892;27;20041;-73
2022/03/17 01:57:22;;;;;;;28.42;19.55;;;9.60;99.90;;;;;;5135755;27;20043;-73
2022/03/17 01:59:49;;;;;;;30.50;21.48;;;10.40;99.90;;;;;;5136013;27;20038;-73
2022/03/17 02:02:15;;;;;;;29.30;20.80;;;9.60;99.90;;;;;;5135972;27;20521;-72
2022/03/17 02:04:41;;;;;;;29.77;20.02;;;9.60;99.90;;;;;;5118504;27;20035;-72
2022/03/17 02:07:08;;;;;;;29.38;20.73;;;9.60;99.90;;;;;;5118902;27;20045;-73
2022/03/17 02:09:35;;;;;;;33.33;20.98;;;10.20;99.90;;;;;;5135918;27;20504;-73
2022/03/17 02:14:51;;;;;;;29.35;20.50;;;9.50;99.90;;;;;;5135524;27;20043;-73
2022/03/17 02:17:18;;;;;;;33.72;21.23;;;9.50;99.90;;;;;;5135493;27;20043;-73
2022/03/17 02:19:44;;;;;;;33.25;21.67;;;9.50;99.90;;;;;;5135579;27;20091;-73
2022/03/17 02:22:13;;;;;;;30.02;21.52;;;9.50;99.90;;;;;;5118565;27;20086;-72
2022/03/17 02:27:25;;;;;;;28.73;19.40;;;9.60;99.90;;;;;;5120825;27;20046;-72
2022/03/17 02:29:51;;;;;;;30.40;21.48;;;9.50;99.90;;;;;;5135873;27;20046;-72
2022/03/17 02:32:17;;;;;;;30.85;21.88;;;9.80;99.90;;;;;;5118418;27;20409;-73
2022/03/17 02:34:44;;;;;;;30.90;21.17;;;9.50;99.90;;;;;;5101272;27;20081;-73
2022/03/17 02:37:12;;;;;;;29.55;19.73;;;9.50;99.90;;;;;;5135533;27;20416;-73
2022/03/17 02:39:38;;;;;;;30.75;21.02;;;9.50;99.90;;;;;;5135721;27;20470;-73
2022/03/17 02:42:05;;;;;;;29.98;20.08;;;9.60;99.90;;;;;;5119050;27;20041;-73
2022/03/17 02:44:32;;;;;;;31.55;20.23;;;9.60;99.90;;;;;;5122034;27;20068;-72
2022/03/17 02:46:58;;;;;;;29.70;20.40;;;9.60;99.90;;;;;;5122111;27;20046;-72
2022/03/17 02:49:24;;;;;;;33.03;20.98;;;9.50;99.90;;;;;;5139451;27;20039;-73
2022/03/17 02:51:50;;;;;;;30.10;20.80;;;9.60;99.90;;;;;;5122409;27;20533;-73
2022/03/17 02:54:16;;;;;;;33.78;19.60;;;9.70;99.90;;;;;;5139079;27;20126;-73
2022/03/17 02:56:41;;;;;;;30.90;19.92;;;9.70;99.90;;;;;;5138959;27;20508;-73
2022/03/17 02:59:07;;;;;;;30.08;20.10;;;9.60;99.90;;;;;;5139126;27;20494;-73
2022/03/17 03:01:32;;;;;;;30.65;17.95;;;9.70;99.90;;;;;;5121583;27;20498;-72
2022/03/17 03:03:58;;;;;;;27.45;19.48;;;9.70;99.90;;;;;;5138901;27;20432;-71
2022/03/17 03:06:24;;;;;;;28.13;19.83;;;9.90;99.90;;;;;;5104746;27;20026;-72
2022/03/17 03:08:50;;;;;;;28.00;17.98;;;10.30;99.90;;;;;;5138710;27;20038;-73
2022/03/17 03:11:15;;;;;;;27.73;20.55;;;9.90;99.90;;;;;;5121741;27;20500;-72
2022/03/17 03:13:43;;;;;;;29.27;20.48;;;9.90;99.90;;;;;;5138693;27;20531;-72
2022/03/17 03:16:08;;;;;;;27.73;19.42;;;9.90;99.90;;;;;;5121729;27;20031;-72
2022/03/17 03:18:34;;;;;;;30.30;20.60;;;10.00;99.90;;;;;;5138545;27;20046;-73
2022/03/17 03:21:00;;;;;;;27.92;18.92;;;10.10;99.90;;;;;;5121181;27;20126;-72
2022/03/17 03:23:26;;;;;;;27.02;19.52;;;10.10;99.90;;;;;;5138656;27;20038;-72
2022/03/17 03:25:51;;;;;;;31.58;21.58;;;10.30;99.90;;;;;;5121606;27;20494;-72
2022/03/17 03:28:17;;;;;;;28.30;19.25;;;10.20;99.90;;;;;;5138349;27;20039;-72
2022/03/17 03:30:43;;;;;;;29.42;21.30;;;10.10;99.90;;;;;;5138664;27;20444;-72
2022/03/17 03:33:08;;;;;;;28.15;18.55;;;10.20;99.90;;;;;;5121403;27;20122;-72
2022/03/17 03:38:22;;;;;;;29.92;20.70;;;10.20;99.90;;;;;;5138041;27;20091;-72
2022/03/17 03:40:47;;;;;;;26.90;19.95;;;10.20;99.90;;;;;;5138128;27;20034;-73
2022/03/17 03:43:14;;;;;;;25.85;18.55;;;10.20;99.90;;;;;;5103907;27;20494;-72
2022/03/17 03:45:39;;;;;;;28.55;19.75;;;10.10;99.90;;;;;;5137890;27;20035;-73
2022/03/17 03:48:05;;;;;;;29.67;19.13;;;10.10;99.90;;;;;;5121108;27;20125;-72
2022/03/17 03:50:31;;;;;;;30.10;21.85;;;10.10;99.90;;;;;;5137951;27;20122;-73
2022/03/17 03:52:57;;;;;;;30.88;21.52;;;10.00;99.90;;;;;;5137702;27;20085;-73
2022/03/17 03:55:23;;;;;;;28.48;20.63;;;10.40;99.90;;;;;;5120008;27;20066;-74
2022/03/17 03:57:49;;;;;;;30.02;20.27;;;10.10;99.90;;;;;;5137751;27;20039;-72
2022/03/17 04:02:57;;;;;;;28.48;21.05;;;10.00;99.90;;;;;;5138000;27;20478;-73
2022/03/17 04:05:28;;;;;;;37.10;23.60;;;10.20;99.90;;;;;;5138012;27;20505;-73
2022/03/17 04:07:57;;;;;;;29.65;21.80;;;10.00;99.90;;;;;;5137987;27;20078;-73
2022/03/17 04:10:27;;;;;;;33.25;22.02;;;10.10;99.90;;;;;;5137625;27;20111;-73
2022/03/17 04:12:53;;;;;;;28.85;20.50;;;10.10;99.90;;;;;;5137469;27;20077;-73
2022/03/17 04:15:19;;;;;;;29.77;21.15;;;10.50;99.90;;;;;;5137483;27;20046;-73
2022/03/17 04:17:45;;;;;;;30.27;21.58;;;10.10;99.90;;;;;;5137433;27;20409;-73
2022/03/17 04:20:11;;;;;;;29.15;17.25;;;10.10;99.90;;;;;;5137516;27;20046;-73
2022/03/17 04:22:37;;;;;;;31.77;22.25;;;10.10;99.90;;;;;;5137089;27;20051;-73
2022/03/17 04:25:04;;;;;;;28.10;21.50;;;10.20;99.90;;;;;;5120403;27;20249;-73
2022/03/17 04:27:29;;;;;;;28.35;20.10;;;10.20;99.90;;;;;;5120168;27;20042;-73
2022/03/17 04:29:55;;;;;;;27.02;19.92;;;10.20;99.90;;;;;;5137042;27;20042;-72
2022/03/17 04:32:21;;;;;;;30.80;22.15;;;10.30;99.90;;;;;;5120194;27;20095;-72
2022/03/17 04:34:47;;;;;;;31.98;20.20;;;10.20;99.90;;;;;;5119994;27;20436;-73
2022/03/17 04:37:14;;;;;;;33.85;23.25;;;10.30;99.90;;;;;;5136972;27;20046;-72
2022/03/17 04:39:39;;;;;;;33.88;23.15;;;10.40;99.90;;;;;;5137209;27;20121;-73
2022/03/17 04:42:05;;;;;;;32.83;22.58;;;10.30;99.90;;;;;;5102740;27;20066;-73
2022/03/17 04:44:31;;;;;;;30.83;22.38;;;10.30;99.90;;;;;;5120056;27;20038;-73
2022/03/17 04:46:57;;;;;;;32.83;23.02;;;10.30;99.90;;;;;;5119741;27;20046;-72
2022/03/17 04:49:23;;;;;;;34.15;24.38;;;10.30;99.90;;;;;;5119753;27;20129;-72
2022/03/17 04:51:48;;;;;;;33.22;22.92;;;10.20;99.90;;;;;;5119766;27;20050;-73
2022/03/17 04:54:14;;;;;;;36.35;25.92;;;10.10;99.90;;;;;;5120009;27;20050;-73
2022/03/17 04:56:40;;;;;;;41.75;27.75;;;10.00;99.90;;;;;;5119513;27;20391;-73
2022/03/17 04:59:05;;;;;;;39.25;27.55;;;9.90;99.90;;;;;;5136565;27;20035;-72
2022/03/17 05:01:31;;;;;;;35.33;23.35;;;9.80;99.90;;;;;;5136488;27;20039;-72
2022/03/17 05:03:57;;;;;;;41.60;28.38;;;9.80;99.90;;;;;;5119724;27;20040;-72
2022/03/17 05:06:22;;;;;;;44.05;28.40;;;9.70;99.90;;;;;;5136541;27;20038;-71
2022/03/17 05:08:48;;;;;;;44.83;30.65;;;9.50;99.90;;;;;;5119551;27;20030;-72
2022/03/17 05:11:14;;;;;;;43.08;29.17;;;9.70;99.90;;;;;;5119188;27;20038;-72
2022/03/17 05:13:40;;;;;;;41.58;26.13;;;9.80;99.90;;;;;;5136083;27;20504;-72
2022/03/17 05:16:07;;;;;;;47.42;32.83;;;9.50;99.90;;;;;;5119417;27;20035;-72
2022/03/17 05:18:34;;;;;;;44.75;28.05;;;9.50;99.90;;;;;;5136123;27;20095;-72
2022/03/17 05:21:00;;;;;;;52.28;34.08;;;9.50;99.90;;;;;;5135975;27;20107;-71
2022/03/17 05:23:26;;;;;;;48.90;34.05;;;9.40;99.90;;;;;;5135942;27;20059;-71
2022/03/17 05:25:52;;;;;;;51.97;35.15;;;9.30;99.90;;;;;;5136507;27;20042;-72
2022/03/17 05:28:19;;;;;;;53.97;35.22;;;9.30;99.90;;;;;;5136277;27;20035;-71
2022/03/17 05:30:46;;;;;;;59.08;36.55;;;9.60;99.90;;;;;;5135997;27;20046;-71
2022/03/17 05:33:12;;;;;;;58.00;36.60;;;9.30;99.90;;;;;;5136033;27;20041;-72
2022/03/17 05:35:39;;;;;;;57.72;38.47;;;9.30;99.90;;;;;;5135930;27;20042;-72
2022/03/17 05:38:05;;;;;;;50.35;33.75;;;9.90;99.90;;;;;;5135964;27;20046;-72
2022/03/17 05:40:31;;;;;;;41.75;26.38;;;9.30;99.90;;;;;;5136056;27;20482;-72
2022/03/17 05:43:00;;;;;;;16.13;11.25;;;9.30;99.90;;;;;;5118819;27;20117;-72
2022/03/17 05:45:27;;;;;;;10.02;7.10;;;9.20;99.90;;;;;;5119099;27;20026;-71
2022/03/17 05:47:54;;;;;;;7.72;5.75;;;9.00;99.90;;;;;;5136126;27;20544;-71
2022/03/17 05:50:23;;;;;;;7.20;5.90;;;8.70;99.90;;;;;;5118508;27;20107;-72
2022/03/17 05:52:49;;;;;;;7.85;6.63;;;8.60;99.90;;;;;;5135858;27;20113;-71
2022/03/17 05:55:16;;;;;;;8.27;7.07;;;8.50;99.90;;;;;;5135726;27;20087;-71
2022/03/17 05:57:48;;;;;;;9.80;6.65;;;8.30;99.90;;;;;;5135663;27;20096;-71
2022/03/17 06:00:15;;;;;;;;;;;8.20;99.90;;;;;;5136427;27;20397;-71
2022/03/17 06:02:40;;;;;;;9.30;6.50;;;8.30;99.90;;;;;;5135645;27;19972;-71
2022/03/17 06:05:07;;;;;;;10.63;7.38;;;8.20;99.90;;;;;;5118784;27;20075;-70
2022/03/17 06:07:41;;;;;;;11.32;7.50;;;8.20;99.90;;;;;;5135570;27;20042;-72
2022/03/17 06:10:09;;;;;;;11.63;7.43;;;8.10;99.90;;;;;;5135612;27;20043;-72
2022/03/17 06:12:35;;;;;;;15.05;8.85;;;8.10;99.90;;;;;;5135691;27;20060;-72
2022/03/17 06:15:02;;;;;;;14.20;9.82;;;8.00;99.90;;;;;;5135535;27;20125;-72
2022/03/17 06:17:42;;;;;;;18.13;9.85;;;8.00;99.90;;;;;;5137046;27;20539;-72
2022/03/17 06:20:13;;;;;;;15.30;10.52;;;8.00;99.90;;;;;;5123442;27;20030;-72
2022/03/17 06:22:40;;;;;;;17.00;10.43;;;8.00;99.90;;;;;;5139553;27;20057;-72
2022/03/17 06:25:08;;;;;;;17.95;11.85;;;8.00;99.90;;;;;;5122522;27;20064;-72
2022/03/17 06:27:36;;;;;;;19.05;10.55;;;7.90;99.90;;;;;;5139377;27;20050;-72
2022/03/17 06:30:07;;;;;;;20.88;9.70;;;8.00;99.90;;;;;;5123134;27;20486;-72
2022/03/17 06:32:39;;;;;;;21.73;10.60;;;7.90;99.90;;;;;;5122410;27;20190;-72
2022/03/17 06:35:15;;;;;;;18.20;8.75;;;7.90;99.90;;;;;;5122746;27;20054;-72
2022/03/17 06:37:41;;;;;;;20.83;9.55;;;7.90;99.90;;;;;;5139431;27;20042;-72
2022/03/17 06:40:08;;;;;;;21.63;9.43;;;7.90;99.90;;;;;;5139661;27;20499;-73
2022/03/17 06:42:34;;;;;;;16.33;8.25;;;7.90;99.90;;;;;;5122251;27;20064;-72
2022/03/17 06:45:00;;;;;;;15.13;8.00;;;7.90;99.90;;;;;;5139152;27;20038;-73
2022/03/17 06:47:25;;;;;;;18.05;9.30;;;8.10;99.90;;;;;;5139154;27;20043;-71
2022/03/17 06:49:51;;;;;;;16.20;8.00;;;7.90;99.90;;;;;;5139060;27;20386;-71
2022/03/17 06:52:17;;;;;;;17.05;8.20;;;7.70;99.90;;;;;;5138831;27;20042;-71
2022/03/17 06:54:43;;;;;;;20.52;7.53;;;7.80;99.90;;;;;;5138779;27;20052;-72
2022/03/17 06:57:09;;;;;;;15.07;7.40;;;7.80;99.90;;;;;;5121510;27;20042;-72
2022/03/17 06:59:34;;;;;;;18.95;7.57;;;7.80;99.90;;;;;;5121842;27;20061;-71
2022/03/17 07:02:00;;;;;;;13.60;5.65;;;8.50;99.90;;;;;;5138743;27;20031;-72
2022/03/17 07:04:26;;;;;;;17.73;6.68;;;7.80;99.90;;;;;;5139185;27;20030;-72
2022/03/17 07:06:52;;;;;;;16.88;6.88;;;7.80;99.90;;;;;;5138867;27;20042;-72
2022/03/17 07:09:17;;;;;;;14.38;6.35;;;7.70;99.90;;;;;;5139077;27;20555;-72
2022/03/17 07:11:44;;;;;;;13.07;5.28;;;7.60;99.90;;;;;;5138666;27;20047;-72
2022/03/17 07:14:10;;;;;;;12.90;5.07;;;7.70;99.90;;;;;;5121974;27;20533;-71
2022/03/17 07:16:36;;;;;;;9.60;4.40;;;7.70;99.90;;;;;;5121491;27;20178;-72
2022/03/17 07:19:02;;;;;;;12.40;4.60;;;7.70;99.90;;;;;;5138595;27;20035;-72
2022/03/17 07:21:28;;;;;;;14.25;4.50;;;7.70;99.90;;;;;;5121460;27;20045;-71
2022/03/17 07:23:54;;;;;;;13.77;4.18;;;7.80;99.90;;;;;;5104574;27;20043;-72
2022/03/17 07:26:20;;;;;;;15.25;4.38;;;7.70;99.90;;;;;;5138490;27;20035;-71
2022/03/17 07:28:47;;;;;;;11.93;2.88;;;7.80;99.90;;;;;;5137048;27;20126;-72
2022/03/17 07:31:13;;;;;;;12.18;3.17;;;7.80;99.90;;;;;;5121293;27;20091;-73
2022/03/17 07:33:38;;;;;;;6.82;2.60;;;7.80;99.90;;;;;;5138303;27;20439;-72
2022/03/17 07:36:05;;;;;;;6.00;2.30;;;7.40;99.90;;;;;;5138057;27;20399;-72
2022/03/17 07:38:31;;;;;;;12.57;2.97;;;7.90;99.90;;;;;;5137971;27;20043;-72
2022/03/17 07:40:56;;;;;;;7.25;2.10;;;7.90;99.90;;;;;;5138371;27;20080;-71
2022/03/17 07:43:23;;;;;;;11.23;2.55;;;7.90;99.90;;;;;;5137978;27;20042;-73
2022/03/17 07:45:49;;;;;;;8.52;2.60;;;7.90;99.90;;;;;;5137861;27;20485;-73
2022/03/17 07:48:15;;;;;;;36.22;4.35;;;8.00;99.90;;;;;;5137826;27;20065;-72
2022/03/17 07:50:41;;;;;;;7.20;2.47;;;7.90;99.90;;;;;;5137837;27;20047;-73
2022/03/17 07:53:07;;;;;;;7.97;2.17;;;8.40;99.90;;;;;;5120617;27;20489;-73
2022/03/17 07:55:33;;;;;;;6.97;1.80;;;8.00;99.90;;;;;;5137904;27;20043;-73
2022/03/17 07:58:00;;;;;;;4.30;1.85;;;8.00;99.90;;;;;;5137794;27;20038;-73
2022/03/17 08:00:26;;;;;;;8.50;2.28;;;8.30;99.90;;;;;;5120704;27;20039;-72
2022/03/17 08:02:52;;;;;;;4.63;1.55;;;7.90;99.90;;;;;;5137701;27;20122;-72
2022/03/17 08:05:17;;;;;;;7.97;1.73;;;7.80;99.90;;;;;;5137466;27;20046;-72
2022/03/17 08:07:43;;;;;;;10.07;1.58;;;7.90;99.90;;;;;;5120585;27;20042;-73
2022/03/17 08:10:10;;;;;;;10.48;2.13;;;7.80;99.90;;;;;;5120828;27;20099;-73
2022/03/17 08:12:35;;;;;;;8.55;1.58;;;7.80;99.90;;;;;;5121091;27;20363;-73
2022/03/17 08:15:04;;;;;;;9.20;1.80;;;7.70;99.90;;;;;;5137299;27;20043;-72
2022/03/17 08:17:30;;;;;;;7.05;1.60;;;7.70;99.90;;;;;;5137260;27;20039;-72
2022/03/17 08:19:57;;;;;;;10.27;1.95;;;7.70;99.90;;;;;;5137642;27;20045;-72
2022/03/17 08:22:23;;;;;;;11.27;1.85;;;7.60;99.90;;;;;;5137063;27;20061;-72
2022/03/17 08:24:49;;;;;;;16.55;1.98;;;7.90;99.90;;;;;;5137343;27;20043;-72
2022/03/17 08:27:14;;;;;;;8.48;1.77;;;7.80;99.90;;;;;;5137432;27;20375;-72
2022/03/17 08:29:41;;;;;;;8.18;2.00;;;7.80;99.90;;;;;;5137204;27;20050;-72
2022/03/17 08:32:07;;;;;;;14.40;2.22;;;7.80;99.90;;;;;;5119846;27;20121;-73
2022/03/17 08:34:33;;;;;;;18.50;2.97;;;7.80;99.90;;;;;;5136916;27;20084;-72
2022/03/17 08:36:59;;;;;;;14.48;2.20;;;7.80;99.90;;;;;;5137057;27;20039;-72
2022/03/17 08:39:26;;;;;;;9.02;1.77;;;7.80;99.90;;;;;;5136906;27;20042;-71
2022/03/17 08:41:52;;;;;;;13.07;2.30;;;7.80;99.90;;;;;;5136633;27;20175;-72
2022/03/17 08:44:19;;;;;;;13.23;2.63;;;7.70;99.90;;;;;;5119658;27;20122;-73
2022/03/17 08:49:29;;;;;;;11.32;2.40;;;7.90;99.90;;;;;;5137192;27;20042;-72
2022/03/17 08:51:59;;;;;;;12.75;2.00;;;8.10;99.90;;;;;;5119762;27;20047;-73
2022/03/17 08:54:27;;;;;;;16.25;2.22;;;7.90;99.90;;;;;;5119473;27;20131;-73
2022/03/17 08:57:01;;;;;;;15.98;3.20;;;7.70;99.90;;;;;;5136664;27;20161;-72
2022/03/17 08:59:31;;;;;;;11.55;2.40;;;7.80;99.90;;;;;;5119562;27;20034;-72
2022/03/17 09:02:10;;;;;;;8.82;1.85;;;8.00;99.90;;;;;;5136907;27;20073;-73
2022/03/17 09:04:36;;;;;;;10.40;2.00;;;7.90;99.90;;;;;;5119412;27;20039;-73
2022/03/17 09:07:03;;;;;;;14.35;2.97;;;7.90;99.90;;;;;;5136683;27;20038;-71
2022/03/17 09:09:31;;;;;;;10.63;2.05;;;7.90;99.90;;;;;;5136568;27;20508;-71
2022/03/17 09:11:57;;;;;;;14.88;2.15;;;7.90;99.90;;;;;;5085901;27;20129;-72
2022/03/17 09:14:25;;;;;;;20.45;2.60;;;7.90;99.90;;;;;;5102526;27;20130;-73
2022/03/17 09:16:51;;;;;;;11.18;2.08;;;8.10;99.90;;;;;;5136414;27;20047;-73
2022/03/17 09:19:21;;;;;;;9.07;2.17;;;7.90;99.90;;;;;;5119412;27;20080;-72
2022/03/17 09:21:48;;;;;;;17.98;2.70;;;7.90;99.90;;;;;;5119259;27;20482;-72
2022/03/17 09:24:13;;;;;;;9.32;2.33;;;7.80;99.90;;;;;;5136086;27;20046;-72
2022/03/17 09:26:39;;;;;;;13.23;2.30;;;7.90;99.90;;;;;;5136123;27;20054;-73
2022/03/17 09:29:05;;;;;;;9.60;2.00;;;7.90;99.90;;;;;;5136365;27;20042;-73
2022/03/17 09:31:31;;;;;;;15.30;2.40;;;7.90;99.90;;;;;;5136167;27;20038;-73
2022/03/17 09:33:58;;;;;;;16.77;2.80;;;8.10;99.90;;;;;;5101988;27;20035;-72
2022/03/17 09:36:24;;;;;;;8.90;2.35;;;8.10;99.90;;;;;;5118902;27;20042;-73
2022/03/17 09:41:36;;;;;;;11.23;2.33;;;8.20;99.90;;;;;;5104540;27;20086;-72
2022/03/17 09:44:03;;;;;;;10.25;2.70;;;8.20;99.90;;;;;;5119153;27;20405;-72
2022/03/17 09:46:31;;;;;;;12.23;2.58;;;8.20;99.90;;;;;;5135961;27;20042;-72
2022/03/17 09:48:57;;;;;;;11.20;2.15;;;8.20;99.90;;;;;;5136008;27;20473;-73
2022/03/17 09:51:27;;;;;;;9.40;2.05;;;8.20;99.90;;;;;;5135280;27;20039;-73
2022/03/17 09:53:56;;;;;;;7.88;1.88;;;8.20;99.90;;;;;;5118402;27;20046;-73
2022/03/17 09:56:23;;;;;;;19.08;2.42;;;8.80;99.90;;;;;;5135897;27;20130;-73
2022/03/17 09:58:53;;;;;;;10.75;2.47;;;8.20;99.90;;;;;;5118465;27;20038;-73
2022/03/17 10:01:20;;;;;;;8.13;2.22;;;7.80;99.90;;;;;;5135940;27;20405;-73
2022/03/17 10:03:47;;;;;;;12.73;2.05;;;8.20;99.90;;;;;;5136067;27;20070;-74
2022/03/17 10:06:14;;;;;;;18.02;3.17;;;8.40;99.90;;;;;;5118483;27;20070;-73
2022/03/17 10:08:42;;;;;;;13.15;2.80;;;8.30;99.90;;;;;;5119236;27;20043;-73
2022/03/17 10:11:12;;;;;;;10.80;2.17;;;8.30;99.90;;;;;;5135821;27;20031;-74
2022/03/17 10:13:47;;;;;;;10.35;2.30;;;8.40;99.90;;;;;;5119068;27;20047;-72
2022/03/17 10:16:18;;;;;;;11.70;2.35;;;8.60;99.90;;;;;;5135858;27;20046;-73
2022/03/17 10:18:46;;;;;;;8.32;2.20;;;8.70;99.90;;;;;;5135503;27;20047;-73
2022/03/17 10:21:28;;;;;;;6.88;1.90;;;8.90;99.90;;;;;;5135660;27;20039;-72
2022/03/17 10:23:59;;;;;;;10.43;2.25;;;9.00;99.90;;;;;;5135580;27;20478;-74
2022/03/17 10:26:37;;;;;;;10.52;2.15;;;9.10;99.90;;;;;;5135570;27;20035;-73
2022/03/17 10:29:08;;;;;;;12.07;2.30;;;9.30;99.90;;;;;;5135694;27;20042;-73
2022/03/17 10:32:09;;;;;;;16.00;3.15;;;9.40;99.90;;;;;;5135870;27;20390;-73
2022/03/17 10:34:55;;;;;;;15.52;2.58;;;9.50;99.90;;;;;;5064993;27;20085;-73
2022/03/17 10:37:23;;;;;;;10.52;1.98;;;9.60;99.90;;;;;;5118878;27;20059;-73
2022/03/17 10:39:50;;;;;;;11.25;1.83;;;9.70;99.90;;;;;;5118298;27;20043;-73
2022/03/17 10:42:27;;;;;;;9.40;1.88;;;9.70;99.90;;;;;;5135401;27;20126;-73
2022/03/17 10:44:55;;;;;;;7.47;1.77;;;9.70;99.90;;;;;;5118408;27;20035;-73
2022/03/17 10:47:26;;;;;;;10.95;3.25;;;9.80;99.90;;;;;;5118313;27;20047;-73
2022/03/17 10:50:22;;;;;;;9.18;2.20;;;10.00;99.90;;;;;;5135056;27;20047;-73
2022/03/17 10:52:57;;;;;;;10.10;1.75;;;10.00;99.90;;;;;;5135331;27;20098;-73
2022/03/17 10:55:27;;;;;;;14.23;2.13;;;10.30;99.90;;;;;;5135160;27;20034;-72
2022/03/17 10:57:58;;;;;;;7.78;2.10;;;10.30;99.90;;;;;;5135153;27;20039;-72
2022/03/17 11:00:28;;;;;;;5.63;1.27;;;10.20;99.90;;;;;;5118130;27;20122;-72
2022/03/17 11:02:58;;;;;;;8.33;1.73;;;10.60;99.90;;;;;;5118966;27;20508;-73
2022/03/17 11:05:27;;;;;;;9.43;1.65;;;10.70;99.90;;;;;;5139011;27;20568;-72
2022/03/17 11:07:54;;;;;;;7.88;2.08;;;10.80;99.90;;;;;;5138871;27;20130;-72
2022/03/17 11:10:22;;;;;;;8.00;2.30;;;11.20;99.90;;;;;;5121450;27;20038;-72
2022/03/17 11:12:50;;;;;;;9.20;2.40;;;11.20;99.90;;;;;;5138992;27;20126;-72
2022/03/17 11:15:25;;;;;;;11.40;2.15;;;11.30;99.90;;;;;;5138644;27;20113;-72
2022/03/17 11:17:52;;;;;;;8.30;2.25;;;11.50;99.90;;;;;;5138626;27;20085;-72
2022/03/17 11:20:23;;;;;;;7.18;1.70;;;11.40;99.90;;;;;;5138927;27;20553;-73
2022/03/17 11:23:15;;;;;;;7.80;2.45;;;11.50;99.90;;;;;;5104420;27;20054;-72
2022/03/17 11:25:50;;;;;;;9.15;2.45;;;11.60;99.90;;;;;;5138474;27;20035;-71
2022/03/17 11:28:16;;;;;;;10.10;2.33;;;11.40;99.90;;;;;;5138583;27;20489;-71
2022/03/17 11:30:42;;;;;;;16.48;2.65;;;11.20;99.90;;;;;;5104040;27;20099;-72
2022/03/17 11:33:27;;;;;;;12.02;2.10;;;11.30;99.90;;;;;;5138011;27;20090;-72
2022/03/17 11:36:23;;;;;;;9.88;2.80;;;11.50;99.90;;;;;;5121246;27;20508;-73
2022/03/17 11:39:09;;;;;;;10.75;2.00;;;11.60;99.90;;;;;;5135590;27;20042;-73
2022/03/17 11:41:42;;;;;;;8.13;1.52;;;11.70;99.90;;;;;;5138139;27;20095;-73
2022/03/17 11:44:07;;;;;;;10.40;2.50;;;11.80;99.90;;;;;;5138332;27;20042;-73
2022/03/17 11:46:51;;;;;;;12.30;2.08;;;12.20;99.90;;;;;;5120905;27;20106;-75
2022/03/17 11:49:22;;;;;;;8.60;2.10;;;12.60;99.90;;;;;;5104047;27;20035;-74
2022/03/17 11:51:52;;;;;;;;;;;12.40;99.90;;;;;;5138586;27;20039;-73
2022/03/17 11:54:18;;;;;;;8.35;2.00;;;12.40;99.90;;;;;;5138091;27;20366;-73
2022/03/17 11:56:45;;;;;;;11.35;2.28;;;12.20;99.90;;;;;;5137724;27;20121;-73
2022/03/17 11:59:16;;;;;;;10.07;1.90;;;12.20;99.90;;;;;;5137750;27;20042;-73
2022/03/17 12:01:47;;;;;;;8.82;2.05;;;12.50;99.90;;;;;;5137772;27;20038;-73
2022/03/17 12:04:20;;;;;;;;;;;12.60;99.90;;;;;;5138276;27;20089;-73
2022/03/17 12:06:53;;;;;;;7.75;1.98;;;12.30;99.90;;;;;;5137906;27;20273;-74
2022/03/17 12:09:31;;;;;;;6.85;2.00;;;12.20;99.90;;;;;;5137462;27;20042;-73
2022/03/17 12:11:57;;;;;;;9.30;2.38;;;12.00;99.90;;;;;;5120690;27;20561;-73
2022/03/17 12:14:24;;;;;;;9.70;1.92;;;11.90;99.90;;;;;;5119751;27;20038;-74
2022/03/17 12:17:17;;;;;;;11.65;2.42;;;12.00;99.90;;;;;;5137400;27;20043;-74
2022/03/17 12:19:51;;;;;;;9.25;2.15;;;12.20;99.90;;;;;;5133020;27;20054;-74
2022/03/17 12:22:35;;;;;;;10.73;2.17;;;12.30;99.90;;;;;;5120125;27;20042;-74
2022/03/17 12:25:16;;;;;;;8.10;2.00;;;12.30;99.90;;;;;;5137511;27;20057;-74
2022/03/17 12:27:43;;;;;;;8.75;2.17;;;12.40;99.90;;;;;;5137276;27;20481;-74
2022/03/17 12:30:12;;;;;;;11.38;2.15;;;12.50;99.90;;;;;;5119989;27;20070;-74
2022/03/17 12:32:49;;;;;;;8.75;2.45;;;12.40;99.90;;;;;;5137276;27;20125;-74
2022/03/17 12:35:16;;;;;;;9.20;1.67;;;12.50;99.90;;;;;;5137560;27;20087;-74
2022/03/17 12:37:43;;;;;;;9.63;2.05;;;12.40;99.90;;;;;;5103026;27;20035;-74
2022/03/17 12:40:15;;;;;;;10.02;2.00;;;12.60;99.90;;;;;;5137156;27;20034;-74
2022/03/17 12:42:44;;;;;;;7.43;2.50;;;12.70;99.90;;;;;;5136866;27;20074;-74
2022/03/17 12:45:16;;;;;;;11.38;2.55;;;13.00;99.90;;;;;;5136960;27;20039;-74
2022/03/17 12:47:47;;;;;;;10.23;2.17;;;13.20;99.90;;;;;;5120167;27;20038;-74
2022/03/17 12:50:15;;;;;;;7.82;2.03;;;13.30;99.90;;;;;;5137029;27;20046;-74
2022/03/17 12:52:43;;;;;;;8.57;2.15;;;13.70;99.90;;;;;;5136964;27;20034;-74
2022/03/17 12:55:11;;;;;;;8.73;1.70;;;13.70;97.80;;;;;;5136809;27;20051;-73
2022/03/17 12:57:38;;;;;;;8.35;2.05;;;13.70;98.30;;;;;;5119535;27;20039;-74
2022/03/17 13:00:05;;;;;;;8.23;2.33;;;13.80;98.80;;;;;;5136532;27;20097;-74
2022/03/17 13:02:31;;;;;;;15.57;4.07;;;14.00;98.80;;;;;;5137028;27;20074;-73
2022/03/17 13:04:59;;;;;;;8.93;2.25;;;14.20;98.20;;;;;;5136689;27;20096;-74
2022/03/17 13:07:26;;;;;;;8.20;2.33;;;14.50;96.20;;;;;;5136637;27;20155;-74
2022/03/17 13:09:53;;;;;;;9.02;2.22;;;14.40;93.80;;;;;;5136582;27;20057;-74
2022/03/17 13:15:15;;;;;;;8.07;2.33;;;14.30;93.90;;;;;;5136464;27;20085;-74
2022/03/17 13:17:49;;;;;;;8.80;1.80;;;14.30;91.90;;;;;;5136228;27;20104;-73